Time;durP1;ratioP1;P1;durP2;ratioP2;P2;SDS_P1;SDS_P2;PMS_P1;PMS_P2;Temp;Humidity;BMP_temperature;BMP_pressure;BME280_temperature;BME280_humidity;BME280_pressure;Samples;Min_cycle;Max_cycle;Signal;HPM_P1;HPM_P2
2023/06/15 00:00:47;;;;;;;10.07;7.28;;;17.10;1.00;;;;;;5059089;28;20110;-78
2023/06/15 00:03:15;;;;;;;10.70;7.03;;;17.10;1.00;;;;;;5058350;28;20102;-79
2023/06/15 00:05:42;;;;;;;12.70;8.48;;;17.10;1.00;;;;;;5059000;28;20048;-80
2023/06/15 00:08:09;;;;;;;10.27;7.35;;;17.10;1.00;;;;;;5057977;28;20040;-80
2023/06/15 00:10:37;;;;;;;11.75;6.97;;;17.00;1.00;;;;;;5059065;28;20056;-79
2023/06/15 00:13:04;;;;;;;11.30;8.43;;;17.10;1.00;;;;;;5058567;28;20037;-78
2023/06/15 00:15:32;;;;;;;12.20;7.80;;;17.00;1.00;;;;;;5057928;28;20048;-78
2023/06/15 00:18:01;;;;;;;11.20;7.82;;;17.00;45.30;;;;;;5058374;28;20420;-77
2023/06/15 00:20:29;;;;;;;12.48;7.53;;;17.00;90.80;;;;;;5057816;28;20040;-79
2023/06/15 00:22:57;;;;;;;11.25;8.40;;;17.00;99.90;;;;;;5058502;28;20041;-79
2023/06/15 00:25:24;;;;;;;12.65;8.07;;;17.00;99.90;;;;;;5059582;28;20060;-79
2023/06/15 00:27:52;;;;;;;11.80;7.93;;;16.90;99.90;;;;;;5057698;28;20123;-78
2023/06/15 00:30:21;;;;;;;14.50;8.05;;;16.90;99.90;;;;;;5041832;28;20048;-79
2023/06/15 00:32:49;;;;;;;12.23;7.97;;;16.90;99.90;;;;;;5060067;28;20049;-80
2023/06/15 00:35:18;;;;;;;10.30;7.45;;;16.90;99.90;;;;;;5040648;28;20046;-79
2023/06/15 00:37:45;;;;;;;12.40;8.00;;;16.90;99.90;;;;;;5060735;28;20051;-80
2023/06/15 00:40:14;;;;;;;10.55;7.93;;;16.90;99.90;;;;;;5043842;28;20061;-80
2023/06/15 00:42:42;;;;;;;15.77;7.63;;;16.80;99.90;;;;;;5058035;28;20040;-80
2023/06/15 00:45:10;;;;;;;13.98;7.88;;;16.80;1.00;;;;;;5057578;28;20622;-78
2023/06/15 00:47:41;;;;;;;13.88;7.75;;;16.80;1.00;;;;;;5037963;28;20044;-79
2023/06/15 00:50:14;;;;;;;9.88;7.72;;;16.80;1.00;;;;;;5056712;28;20119;-77
2023/06/15 00:52:44;;;;;;;10.63;7.43;;;16.80;1.00;;;;;;5056652;28;20956;-81
2023/06/15 00:55:13;;;;;;;12.68;7.90;;;16.80;1.00;;;;;;5040213;28;20055;-78
2023/06/15 00:57:44;;;;;;;10.45;7.15;;;16.80;1.00;;;;;;5039644;28;20410;-78
2023/06/15 01:00:14;;;;;;;13.98;7.57;;;16.80;1.00;;;;;;5057981;28;20075;-80
2023/06/15 01:02:42;;;;;;;12.18;7.07;;;16.80;99.90;;;;;;5057972;28;20048;-78
2023/06/15 01:05:12;;;;;;;17.20;12.32;;;16.80;1.00;;;;;;5039098;28;20519;-79
2023/06/15 01:07:47;;;;;;;11.70;8.40;;;16.80;1.00;;;;;;5056368;28;20123;-80
2023/06/15 01:10:17;;;;;;;12.02;6.93;;;16.80;1.00;;;;;;5040063;28;20041;-80
2023/06/15 01:12:50;;;;;;;10.02;7.07;;;16.80;1.00;;;;;;5036728;28;20052;-79
2023/06/15 01:15:18;;;;;;;15.27;7.78;;;16.70;1.00;;;;;;5039683;28;20048;-80
2023/06/15 01:17:46;;;;;;;10.02;7.43;;;16.80;1.00;;;;;;5063892;28;20045;-79
2023/06/15 01:20:21;;;;;;;11.68;7.00;;;16.80;1.00;;;;;;5040241;28;20059;-77
2023/06/15 01:22:57;;;;;;;8.95;7.30;;;16.80;1.00;;;;;;5040823;28;20126;-79
2023/06/15 01:25:33;;;;;;;13.25;7.55;;;16.80;1.00;;;;;;5053073;28;20377;-79
2023/06/15 01:28:05;;;;;;;11.88;7.82;;;16.80;1.00;;;;;;5041763;28;20067;-78
2023/06/15 01:30:35;;;;;;;10.57;7.78;;;16.80;1.00;;;;;;5061571;28;20069;-79
2023/06/15 01:33:02;;;;;;;10.48;7.22;;;16.90;99.90;;;;;;5043506;28;20095;-81
2023/06/15 01:35:30;;;;;;;10.95;6.95;;;16.90;99.90;;;;;;5060291;28;20037;-77
2023/06/15 01:37:57;;;;;;;11.38;7.38;;;16.90;99.90;;;;;;5060728;28;20378;-80
2023/06/15 01:40:25;;;;;;;13.63;7.55;;;16.90;99.90;;;;;;5074552;22;20061;-79
2023/06/15 01:42:53;;;;;;;10.63;7.35;;;16.80;99.90;;;;;;5051935;28;20062;-79
2023/06/15 01:45:23;;;;;;;8.75;7.30;;;16.80;99.90;;;;;;5065110;28;20057;-80
2023/06/15 01:47:51;;;;;;;11.23;7.10;;;16.80;99.90;;;;;;5070366;28;20587;-79
2023/06/15 01:50:20;;;;;;;12.23;7.25;;;16.80;99.90;;;;;;5054039;28;20111;-78
2023/06/15 01:52:48;;;;;;;11.65;7.18;;;16.80;99.90;;;;;;5071243;28;20036;-79
2023/06/15 01:55:16;;;;;;;15.48;7.47;;;16.80;99.90;;;;;;5072229;28;20070;-78
2023/06/15 01:57:43;;;;;;;11.15;7.85;;;16.80;99.90;;;;;;5052610;28;20127;-78
2023/06/15 02:00:12;;;;;;;13.63;7.68;;;16.80;99.90;;;;;;5069719;28;20048;-80
2023/06/15 02:02:44;;;;;;;12.18;6.70;;;16.80;99.90;;;;;;5069809;28;20064;-79
2023/06/15 02:05:11;;;;;;;9.45;7.03;;;16.80;1.00;;;;;;5069700;28;20044;-79
2023/06/15 02:07:39;;;;;;;11.73;6.88;;;16.70;1.00;;;;;;5053003;28;20041;-79
2023/06/15 02:10:08;;;;;;;8.68;6.95;;;16.70;1.00;;;;;;5070520;28;20040;-79
2023/06/15 02:12:35;;;;;;;11.98;8.07;;;16.70;1.00;;;;;;5052715;28;20053;-79
2023/06/15 02:15:06;;;;;;;11.68;6.82;;;16.70;1.00;;;;;;5051534;28;20495;-79
2023/06/15 02:17:39;;;;;;;10.93;7.20;;;16.70;1.00;;;;;;5069996;28;20067;-79
2023/06/15 02:20:10;;;;;;;12.88;7.22;;;16.70;1.00;;;;;;5051651;28;20145;-79
2023/06/15 02:22:39;;;;;;;9.75;7.35;;;16.70;1.00;;;;;;5053332;28;20095;-79
2023/06/15 02:25:07;;;;;;;11.20;7.50;;;16.70;1.00;;;;;;5052057;28;20419;-78
2023/06/15 02:27:35;;;;;;;10.05;7.32;;;16.70;1.00;;;;;;5051407;28;20033;-79
2023/06/15 02:30:03;;;;;;;9.43;6.60;;;16.70;1.00;;;;;;5052545;28;20033;-79
2023/06/15 02:32:35;;;;;;;10.55;7.32;;;16.60;1.00;;;;;;5052194;28;20459;-79
2023/06/15 02:35:05;;;;;;;10.63;7.05;;;16.70;1.00;;;;;;5069643;28;20066;-79
2023/06/15 02:37:34;;;;;;;9.55;6.97;;;16.70;1.00;;;;;;5052262;28;20055;-79
2023/06/15 02:40:03;;;;;;;14.25;7.47;;;16.70;1.00;;;;;;5052794;28;20050;-79
2023/06/15 02:42:32;;;;;;;10.65;6.75;;;16.70;1.00;;;;;;5069048;28;20048;-78
2023/06/15 02:45:00;;;;;;;12.60;6.90;;;16.70;1.00;;;;;;5052209;28;20710;-79
2023/06/15 02:47:29;;;;;;;9.93;7.75;;;16.70;1.00;;;;;;5069426;28;20056;-79
2023/06/15 02:49:58;;;;;;;9.73;7.00;;;16.70;99.90;;;;;;5052120;28;20132;-78
2023/06/15 02:52:30;;;;;;;12.85;7.22;;;16.70;1.00;;;;;;5052998;28;20040;-79
2023/06/15 02:54:59;;;;;;;9.73;7.05;;;16.70;99.90;;;;;;5067899;28;20064;-79
2023/06/15 02:57:27;;;;;;;10.05;6.30;;;16.70;99.90;;;;;;5051098;28;20113;-79
2023/06/15 03:00:23;;;;;;;8.63;6.40;;;16.60;99.90;;;;;;5066895;28;20434;-79
2023/06/15 03:03:22;;;;;;;11.35;6.35;;;16.70;99.90;;;;;;5065945;28;20400;-79
2023/06/15 03:05:51;;;;;;;8.02;5.70;;;16.70;99.90;;;;;;5050679;28;20037;-79
2023/06/15 03:08:20;;;;;;;10.75;7.00;;;16.60;99.90;;;;;;5050893;28;20049;-79
2023/06/15 03:10:55;;;;;;;10.13;6.38;;;16.60;99.90;;;;;;5052110;28;20041;-78
2023/06/15 03:13:23;;;;;;;10.20;7.07;;;16.60;99.90;;;;;;5052926;28;20072;-78
2023/06/15 03:15:51;;;;;;;9.30;7.10;;;16.60;1.00;;;;;;5069574;28;20036;-78
2023/06/15 03:18:19;;;;;;;8.75;6.53;;;16.60;1.00;;;;;;5051130;28;20071;-79
2023/06/15 03:20:52;;;;;;;13.20;7.22;;;16.60;1.00;;;;;;5051336;28;20097;-79
2023/06/15 03:23:20;;;;;;;11.57;7.22;;;16.60;1.00;;;;;;5049780;28;20048;-79
2023/06/15 03:25:49;;;;;;;8.20;6.63;;;16.60;1.00;;;;;;5067500;28;20095;-79
2023/06/15 03:28:19;;;;;;;10.40;6.65;;;16.60;1.00;;;;;;5067882;28;20055;-79
2023/06/15 03:30:52;;;;;;;8.82;7.07;;;16.70;1.00;;;;;;5051502;28;20044;-79
2023/06/15 03:33:22;;;;;;;12.00;7.18;;;16.70;1.00;;;;;;5069060;28;20039;-78
2023/06/15 03:35:50;;;;;;;13.15;7.72;;;16.70;1.00;;;;;;5068637;28;20140;-78
2023/06/15 03:38:18;;;;;;;8.60;6.63;;;16.80;1.00;;;;;;5051155;28;20112;-78
2023/06/15 03:40:46;;;;;;;9.88;6.88;;;16.80;1.00;;;;;;5050790;28;20044;-78
2023/06/15 03:43:15;;;;;;;9.75;7.22;;;16.80;1.00;;;;;;5051846;28;20051;-77
2023/06/15 03:45:46;;;;;;;8.48;6.22;;;16.70;1.00;;;;;;5050538;28;20045;-79
2023/06/15 03:48:14;;;;;;;11.20;7.80;;;16.70;1.00;;;;;;5050985;28;20093;-78
2023/06/15 03:50:41;;;;;;;9.63;7.20;;;16.70;1.00;;;;;;5050052;28;20047;-78
2023/06/15 03:53:11;;;;;;;11.88;8.02;;;16.70;1.00;;;;;;5050741;28;20040;-79
2023/06/15 03:55:39;;;;;;;9.38;7.38;;;16.80;1.00;;;;;;5051472;28;20036;-79
2023/06/15 03:58:07;;;;;;;11.07;7.72;;;16.90;99.90;;;;;;5050123;28;20159;-79
2023/06/15 04:00:34;;;;;;;9.27;7.13;;;16.80;99.90;;;;;;5051281;28;20079;-78
2023/06/15 04:03:03;;;;;;;11.90;7.28;;;16.80;99.90;;;;;;5067626;28;20510;-78
2023/06/15 04:05:31;;;;;;;12.23;7.15;;;16.80;99.90;;;;;;5049722;28;20048;-78
2023/06/15 04:07:59;;;;;;;13.25;7.55;;;16.80;99.90;;;;;;5067741;28;20045;-79
2023/06/15 04:10:27;;;;;;;11.93;7.43;;;16.80;99.90;;;;;;5051096;28;20087;-79
2023/06/15 04:12:56;;;;;;;14.27;8.02;;;16.90;99.90;;;;;;5051913;28;20049;-79
2023/06/15 04:15:24;;;;;;;12.02;7.53;;;16.90;1.00;;;;;;5049765;28;20465;-79
2023/06/15 04:17:52;;;;;;;12.77;8.32;;;17.00;1.00;;;;;;5050703;28;20515;-79
2023/06/15 04:20:21;;;;;;;11.30;8.32;;;17.00;99.90;;;;;;5050855;28;20094;-79
2023/06/15 04:22:51;;;;;;;12.70;8.30;;;17.00;1.00;;;;;;5051163;28;20044;-78
2023/06/15 04:25:19;;;;;;;15.10;7.85;;;17.00;1.00;;;;;;5069111;28;20041;-78
2023/06/15 04:27:49;;;;;;;14.60;8.18;;;17.00;1.00;;;;;;5051413;28;20131;-79
2023/06/15 04:30:24;;;;;;;10.50;8.02;;;17.00;1.00;;;;;;5049971;28;20063;-80
2023/06/15 04:32:59;;;;;;;12.63;9.27;;;17.10;1.00;;;;;;5068063;28;20565;-78
2023/06/15 04:35:31;;;;;;;11.00;8.40;;;17.00;1.00;;;;;;5050086;28;20040;-79
2023/06/15 04:38:00;;;;;;;12.23;8.38;;;17.00;1.00;;;;;;5053700;28;20052;-78
2023/06/15 04:40:27;;;;;;;10.05;8.50;;;17.00;1.00;;;;;;5053934;28;20083;-79
2023/06/15 04:42:57;;;;;;;11.82;8.88;;;17.10;1.00;;;;;;5050124;28;20480;-79
2023/06/15 04:45:26;;;;;;;11.93;8.57;;;17.10;99.90;;;;;;5050944;28;20051;-79
2023/06/15 04:47:54;;;;;;;15.77;9.70;;;17.10;99.90;;;;;;5048486;28;20041;-78
2023/06/15 04:50:21;;;;;;;13.55;9.98;;;17.20;99.90;;;;;;5050223;28;20136;-78
2023/06/15 04:52:50;;;;;;;12.40;9.75;;;17.20;99.90;;;;;;5049830;28;20036;-79
2023/06/15 04:55:18;;;;;;;14.27;8.60;;;17.20;99.90;;;;;;5050167;28;20049;-78
2023/06/15 04:57:45;;;;;;;11.15;9.02;;;17.30;99.90;;;;;;5047152;28;20102;-78
2023/06/15 05:00:14;;;;;;;12.98;10.30;;;17.30;1.00;;;;;;5049065;28;20064;-78
2023/06/15 05:02:47;;;;;;;13.93;9.43;;;17.30;1.00;;;;;;5049004;28;20045;-79
2023/06/15 05:05:15;;;;;;;14.13;8.90;;;17.40;1.00;;;;;;5049138;28;20135;-78
2023/06/15 05:07:44;;;;;;;14.68;8.10;;;17.40;1.00;;;;;;5048567;28;20140;-78
2023/06/15 05:10:13;;;;;;;15.63;9.25;;;17.50;1.00;;;;;;5067253;28;20052;-77
2023/06/15 05:12:41;;;;;;;20.50;10.48;;;17.60;1.00;;;;;;5048106;28;20050;-79
2023/06/15 05:15:10;;;;;;;15.30;10.10;;;17.60;1.00;;;;;;5049872;28;20044;-78
2023/06/15 05:17:37;;;;;;;17.23;10.18;;;17.70;1.00;;;;;;5047626;28;20519;-77
2023/06/15 05:20:06;;;;;;;14.60;9.02;;;17.80;1.00;;;;;;5067565;28;20072;-77
2023/06/15 05:22:33;;;;;;;13.23;9.13;;;17.80;1.00;;;;;;5050149;28;20044;-77
2023/06/15 05:25:01;;;;;;;13.30;9.65;;;17.80;1.00;;;;;;5048898;28;20674;-78
2023/06/15 05:27:30;;;;;;;15.27;9.60;;;17.80;1.00;;;;;;5048157;28;20154;-78
2023/06/15 05:29:58;;;;;;;17.40;9.77;;;17.90;1.00;;;;;;5065182;28;20135;-77
2023/06/15 05:32:26;;;;;;;14.85;9.95;;;17.90;1.00;;;;;;5066563;28;20163;-78
2023/06/15 05:34:53;;;;;;;13.23;9.57;;;18.00;99.90;;;;;;5048686;28;20099;-77
2023/06/15 05:37:21;;;;;;;14.10;9.63;;;17.90;99.90;;;;;;5049833;28;20511;-76
2023/06/15 05:39:48;;;;;;;17.58;10.30;;;17.90;99.90;;;;;;5065786;28;20048;-78
2023/06/15 05:42:18;;;;;;;15.82;10.13;;;18.00;99.90;;;;;;5067190;28;20048;-78
2023/06/15 05:44:50;;;;;;;13.55;10.05;;;18.10;99.90;;;;;;5048079;28;20044;-77
2023/06/15 05:47:18;;;;;;;15.02;9.27;;;18.10;99.90;;;;;;5047225;28;20113;-76
2023/06/15 05:49:45;;;;;;;15.07;9.65;;;18.10;99.90;;;;;;5049136;28;20354;-77
2023/06/15 05:52:14;;;;;;;13.40;9.45;;;18.10;99.90;;;;;;5049454;28;20036;-76
2023/06/15 05:54:43;;;;;;;17.30;11.40;;;18.10;99.90;;;;;;5048952;28;20144;-76
2023/06/15 05:57:11;;;;;;;21.30;13.45;;;18.10;99.90;;;;;;5047901;28;20047;-77
2023/06/15 05:59:39;;;;;;;20.27;12.32;;;18.00;99.90;;;;;;5060899;28;20067;-77
2023/06/15 06:02:10;;;;;;;15.73;10.70;;;18.10;99.90;;;;;;5071760;28;20052;-76
2023/06/15 06:04:39;;;;;;;13.32;10.35;;;18.20;99.90;;;;;;5055012;28;20044;-77
2023/06/15 06:07:07;;;;;;;14.35;10.18;;;18.20;99.90;;;;;;5050733;28;20086;-78
2023/06/15 06:09:38;;;;;;;13.52;10.02;;;18.20;99.90;;;;;;5052473;28;20120;-76
2023/06/15 06:12:07;;;;;;;14.85;10.32;;;18.30;99.90;;;;;;5054693;28;20478;-77
2023/06/15 06:14:35;;;;;;;30.00;18.48;;;18.40;99.90;;;;;;5052560;28;20531;-76
2023/06/15 06:17:03;;;;;;;14.55;9.85;;;18.40;99.90;;;;;;5052243;28;20100;-76
2023/06/15 06:19:32;;;;;;;14.48;10.38;;;18.40;99.90;;;;;;5054856;28;20048;-78
2023/06/15 06:21:59;;;;;;;16.63;11.82;;;18.60;99.90;;;;;;5056926;28;20063;-77
2023/06/15 06:24:27;;;;;;;14.45;10.05;;;18.60;96.20;;;;;;5053950;28;20102;-77
2023/06/15 06:26:57;;;;;;;15.00;9.93;;;18.60;71.00;;;;;;5051994;28;20471;-77
2023/06/15 06:29:24;;;;;;;14.82;9.70;;;18.60;1.00;;;;;;5068942;28;20591;-79
2023/06/15 06:31:52;;;;;;;17.63;8.98;;;18.70;1.00;;;;;;5051782;28;20135;-78
2023/06/15 06:34:19;;;;;;;13.23;9.57;;;18.70;1.00;;;;;;5070955;28;20090;-78
2023/06/15 06:36:48;;;;;;;15.77;9.85;;;18.70;1.00;;;;;;5069898;28;20606;-77
2023/06/15 06:39:16;;;;;;;17.23;11.50;;;18.70;26.00;;;;;;5069613;28;20132;-78
2023/06/15 06:41:45;;;;;;;16.42;11.77;;;18.70;17.70;;;;;;5070566;28;20048;-79
2023/06/15 06:44:14;;;;;;;24.73;12.02;;;18.80;56.20;;;;;;5052200;28;20055;-78
2023/06/15 06:46:42;;;;;;;21.45;10.85;;;18.90;24.00;;;;;;5070358;28;20504;-77
2023/06/15 06:49:09;;;;;;;16.83;11.60;;;19.00;1.00;;;;;;5069565;28;20048;-79
2023/06/15 06:51:37;;;;;;;16.10;12.52;;;19.00;1.00;;;;;;5070551;28;20080;-77
2023/06/15 06:54:06;;;;;;;15.75;11.80;;;18.90;1.00;;;;;;5068953;28;20040;-77
2023/06/15 06:56:34;;;;;;;17.63;13.10;;;19.00;1.00;;;;;;5070462;28;20556;-78
2023/06/15 06:59:01;;;;;;;15.98;13.90;;;19.00;1.00;;;;;;5069449;28;20037;-79
2023/06/15 07:01:29;;;;;;;17.58;12.82;;;19.10;1.00;;;;;;5070812;28;20048;-77
2023/06/15 07:03:57;;;;;;;20.20;14.35;;;19.10;1.00;;;;;;5051885;28;20131;-77
2023/06/15 07:06:24;;;;;;;24.15;18.30;;;19.20;1.00;;;;;;5069439;28;20484;-78
2023/06/15 07:08:51;;;;;;;21.48;14.50;;;19.30;1.00;;;;;;5069432;28;20036;-78
2023/06/15 07:11:20;;;;;;;19.55;13.18;;;19.40;1.00;;;;;;5069263;28;20082;-77
2023/06/15 07:13:48;;;;;;;20.33;15.40;;;19.50;1.00;;;;;;5068876;28;20045;-78
2023/06/15 07:16:15;;;;;;;30.25;21.38;;;19.50;1.00;;;;;;5068399;28;20029;-78
2023/06/15 07:18:43;;;;;;;24.42;18.30;;;19.50;1.00;;;;;;5068837;28;20051;-78
2023/06/15 07:21:11;;;;;;;27.23;16.38;;;19.60;1.00;;;;;;5068385;28;20052;-78
2023/06/15 07:23:38;;;;;;;20.05;13.93;;;19.60;1.00;;;;;;5068708;28;20413;-78
2023/06/15 07:26:06;;;;;;;23.65;15.80;;;19.60;1.00;;;;;;5068541;28;20045;-77
2023/06/15 07:28:34;;;;;;;24.67;15.15;;;19.60;1.00;;;;;;5068185;28;20047;-79
2023/06/15 07:31:02;;;;;;;26.40;16.90;;;19.70;1.00;;;;;;5068979;28;20086;-78
2023/06/15 07:33:29;;;;;;;25.67;17.77;;;19.80;1.00;;;;;;5068533;28;20174;-79
2023/06/15 07:35:57;;;;;;;35.13;20.40;;;19.80;1.00;;;;;;5051260;28;20032;-78
2023/06/15 07:38:25;;;;;;;32.83;19.73;;;19.80;1.00;;;;;;5067869;28;20044;-79
2023/06/15 07:40:53;;;;;;;32.95;20.38;;;19.80;1.00;;;;;;5068759;28;20519;-78
2023/06/15 07:43:21;;;;;;;35.08;21.35;;;19.90;1.00;;;;;;5069488;28;20040;-78
2023/06/15 07:45:50;;;;;;;35.95;22.45;;;20.00;1.00;;;;;;5067498;28;20044;-77
2023/06/15 07:48:17;;;;;;;38.28;24.05;;;20.00;1.00;;;;;;5068601;28;20044;-78
2023/06/15 07:50:46;;;;;;;39.90;23.58;;;20.00;1.00;;;;;;5068259;28;20036;-78
2023/06/15 07:53:14;;;;;;;33.90;21.92;;;20.00;1.00;;;;;;5068629;28;20425;-76
2023/06/15 07:55:41;;;;;;;36.97;22.95;;;20.00;1.00;;;;;;5069127;28;20048;-79
2023/06/15 07:58:09;;;;;;;38.30;22.08;;;19.90;1.00;;;;;;5068202;28;20040;-79
2023/06/15 08:00:36;;;;;;;32.83;22.08;;;19.90;1.00;;;;;;5068821;28;20102;-84
2023/06/15 08:03:05;;;;;;;43.08;30.05;;;19.90;1.00;;;;;;5073980;28;20044;-77
2023/06/15 08:05:32;;;;;;;49.35;32.78;;;19.90;1.00;;;;;;5076176;28;20469;-78
2023/06/15 08:08:00;;;;;;;42.40;27.17;;;19.90;1.00;;;;;;5069349;28;20411;-78
2023/06/15 08:10:29;;;;;;;39.38;27.42;;;20.00;1.00;;;;;;5051874;28;20122;-80
2023/06/15 08:12:57;;;;;;;46.83;29.33;;;20.00;1.00;;;;;;5071122;28;20039;-79
2023/06/15 08:15:24;;;;;;;55.85;31.42;;;20.00;1.00;;;;;;5072701;28;20101;-78
2023/06/15 08:17:52;;;;;;;49.42;34.30;;;20.00;1.00;;;;;;5069435;28;20150;-78
2023/06/15 08:20:21;;;;;;;53.15;33.42;;;20.00;1.00;;;;;;5067224;28;20045;-80
2023/06/15 08:22:48;;;;;;;47.00;33.10;;;20.10;1.00;;;;;;5068849;28;20119;-78
2023/06/15 08:25:16;;;;;;;46.00;31.95;;;20.30;1.00;;;;;;5068667;28;20048;-78
2023/06/15 08:27:43;;;;;;;43.67;31.05;;;20.50;1.00;;;;;;5068212;28;20085;-78
2023/06/15 08:30:12;;;;;;;34.80;27.63;;;20.70;1.00;;;;;;5066633;28;20131;-78
2023/06/15 08:32:40;;;;;;;39.30;27.70;;;21.10;1.00;;;;;;5068408;28;20148;-78
2023/06/15 08:35:08;;;;;;;44.42;31.77;;;21.50;1.00;;;;;;5069024;28;20076;-78
2023/06/15 08:37:37;;;;;;;42.22;29.27;;;21.90;1.00;;;;;;5069852;28;20043;-78
2023/06/15 08:40:07;;;;;;;42.80;28.73;;;22.20;1.00;;;;;;5050266;28;20045;-78
2023/06/15 08:42:35;;;;;;;40.03;26.25;;;22.10;99.90;;;;;;5067575;28;20089;-77
2023/06/15 08:45:07;;;;;;;42.78;27.90;;;22.20;99.90;;;;;;5067536;28;20123;-78
2023/06/15 08:47:36;;;;;;;35.50;24.70;;;22.40;99.90;;;;;;5066711;28;20055;-79
2023/06/15 08:50:05;;;;;;;31.75;21.40;;;22.60;99.90;;;;;;5067425;28;20060;-78
2023/06/15 08:52:35;;;;;;;32.85;24.08;;;22.70;99.90;;;;;;5067320;28;20039;-78
2023/06/15 08:55:05;;;;;;;34.25;26.75;;;22.80;99.90;;;;;;5067580;28;20056;-78
2023/06/15 08:57:35;;;;;;;30.67;22.05;;;23.00;99.90;;;;;;5067037;28;20047;-78
2023/06/15 09:00:05;;;;;;;32.47;22.27;;;23.10;99.90;;;;;;5067340;28;20033;-77
2023/06/15 09:02:34;;;;;;;40.35;28.73;;;23.10;99.90;;;;;;5067870;28;20048;-79
2023/06/15 09:05:01;;;;;;;39.75;27.58;;;23.10;99.90;;;;;;5066952;28;20365;-79
2023/06/15 09:07:30;;;;;;;35.22;25.95;;;23.10;99.90;;;;;;5067946;28;20125;-79
2023/06/15 09:10:18;;;;;;;34.30;24.55;;;23.10;99.90;;;;;;5067534;28;20094;-79
2023/06/15 09:12:47;;;;;;;26.75;19.30;;;23.10;99.90;;;;;;5067303;28;20413;-77
2023/06/15 09:15:19;;;;;;;30.08;20.90;;;23.00;99.90;;;;;;5066829;28;20045;-78
2023/06/15 09:17:49;;;;;;;28.38;17.58;;;22.90;99.90;;;;;;5066882;28;20033;-78
2023/06/15 09:20:18;;;;;;;37.78;22.48;;;22.80;99.90;;;;;;5051454;28;20053;-78
2023/06/15 09:22:46;;;;;;;37.83;25.77;;;22.90;99.90;;;;;;5069560;28;20068;-78
2023/06/15 09:25:19;;;;;;;29.50;20.67;;;22.80;99.90;;;;;;5068303;28;20377;-78
2023/06/15 09:27:55;;;;;;;26.90;21.02;;;22.40;99.90;;;;;;5066407;28;20036;-78
2023/06/15 09:30:23;;;;;;;24.77;16.33;;;22.10;99.90;;;;;;5067174;28;20082;-78
2023/06/15 09:32:51;;;;;;;24.83;16.38;;;22.10;99.90;;;;;;5067405;28;20045;-78
2023/06/15 09:35:18;;;;;;;25.95;18.23;;;22.10;99.90;;;;;;5068287;28;20048;-79
2023/06/15 09:37:46;;;;;;;25.63;16.70;;;22.20;99.90;;;;;;5066290;28;20052;-78
2023/06/15 09:40:13;;;;;;;23.83;16.05;;;22.30;99.90;;;;;;5068787;28;20136;-77
2023/06/15 09:42:43;;;;;;;24.15;16.65;;;22.20;99.90;;;;;;5066917;28;20195;-78
2023/06/15 09:45:11;;;;;;;23.65;17.38;;;22.20;99.90;;;;;;5070363;28;20047;-77
2023/06/15 09:47:39;;;;;;;25.05;15.90;;;22.30;99.90;;;;;;5070069;28;21581;-77
2023/06/15 09:50:11;;;;;;;22.05;15.93;;;22.20;99.90;;;;;;5069845;28;20040;-79
2023/06/15 09:52:43;;;;;;;21.00;16.77;;;21.90;99.90;;;;;;5071000;28;20127;-78
2023/06/15 09:55:11;;;;;;;23.83;17.52;;;21.80;99.90;;;;;;5070852;28;20534;-78
2023/06/15 09:57:42;;;;;;;23.75;18.42;;;21.70;99.90;;;;;;5070635;28;20126;-77
2023/06/15 10:00:12;;;;;;;26.85;19.38;;;21.70;99.90;;;;;;5069821;28;20431;-78
2023/06/15 10:02:40;;;;;;;21.08;17.05;;;21.70;99.90;;;;;;5070176;28;20044;-79
2023/06/15 10:05:14;;;;;;;20.98;17.10;;;21.70;99.90;;;;;;5069765;28;20078;-79
2023/06/15 10:07:48;;;;;;;27.10;18.58;;;21.70;99.90;;;;;;5070673;28;20079;-78
2023/06/15 10:10:17;;;;;;;25.38;19.73;;;21.80;99.90;;;;;;5071166;28;20044;-79
2023/06/15 10:12:52;;;;;;;26.08;21.42;;;21.90;99.90;;;;;;5071919;28;20123;-79
2023/06/15 10:15:21;;;;;;;31.40;21.23;;;21.80;99.90;;;;;;5070572;28;22098;-79
2023/06/15 10:17:52;;;;;;;28.42;21.73;;;21.50;99.90;;;;;;5069003;28;20041;-79
2023/06/15 10:20:23;;;;;;;23.13;17.23;;;21.40;99.90;;;;;;5070114;28;20044;-78
2023/06/15 10:22:59;;;;;;;10.70;8.07;;;21.00;99.90;;;;;;5069759;28;20055;-78
2023/06/15 10:25:28;;;;;;;18.00;11.57;;;20.90;99.90;;;;;;5071076;28;20678;-78
2023/06/15 10:27:57;;;;;;;15.30;11.27;;;20.70;99.90;;;;;;5069356;28;20048;-78
2023/06/15 10:30:32;;;;;;;14.52;12.65;;;20.60;99.90;;;;;;5069509;28;20045;-77
2023/06/15 10:33:09;;;;;;;12.32;9.70;;;20.50;99.90;;;;;;5069560;28;20488;-79
2023/06/15 10:35:43;;;;;;;12.07;9.73;;;20.20;99.90;;;;;;5070546;28;20094;-78
2023/06/15 10:38:25;;;;;;;13.75;9.80;;;20.10;99.90;;;;;;5069896;28;20114;-77
2023/06/15 10:40:53;;;;;;;17.15;12.32;;;20.00;99.90;;;;;;5068969;28;20080;-77
2023/06/15 10:43:25;;;;;;;18.85;15.35;;;19.80;99.90;;;;;;5069289;28;20044;-77
2023/06/15 10:45:54;;;;;;;15.00;10.65;;;19.80;99.90;;;;;;5068771;28;20123;-79
2023/06/15 10:48:23;;;;;;;13.40;8.93;;;19.80;1.00;;;;;;5060452;28;20238;-80
2023/06/15 10:50:51;;;;;;;12.15;8.80;;;19.90;99.90;;;;;;5051342;28;20102;-79
2023/06/15 10:53:23;;;;;;;12.18;10.15;;;20.00;99.90;;;;;;5052175;28;20416;-78
2023/06/15 10:55:55;;;;;;;15.23;11.75;;;20.20;1.00;;;;;;5068366;28;20036;-78
2023/06/15 10:58:26;;;;;;;17.60;13.82;;;20.30;99.90;;;;;;5068989;28;20102;-78
2023/06/15 11:01:08;;;;;;;15.52;10.95;;;20.40;99.90;;;;;;5069312;28;20045;-79
2023/06/15 11:03:36;;;;;;;13.52;10.85;;;20.50;99.90;;;;;;5069239;28;20669;-78
2023/06/15 11:06:08;;;;;;;13.55;9.88;;;20.50;99.90;;;;;;5069241;28;20279;-79
2023/06/15 11:08:47;;;;;;;13.82;10.30;;;20.50;99.90;;;;;;5067810;28;20500;-79
2023/06/15 11:11:15;;;;;;;11.95;9.35;;;20.50;99.90;;;;;;5068915;28;20080;-78
2023/06/15 11:13:59;;;;;;;11.98;9.90;;;20.40;99.90;;;;;;5068457;28;20033;-78
2023/06/15 11:16:29;;;;;;;14.95;10.80;;;20.30;99.90;;;;;;5052308;28;20143;-81
2023/06/15 11:19:16;;;;;;;13.07;10.88;;;20.20;99.90;;;;;;5068901;28;20036;-78
2023/06/15 11:21:52;;;;;;;16.45;11.77;;;20.10;99.90;;;;;;5069150;28;20036;-77
2023/06/15 11:24:20;;;;;;;15.98;13.75;;;20.10;99.90;;;;;;5067872;28;20044;-78
2023/06/15 11:26:50;;;;;;;17.95;12.73;;;20.10;1.00;;;;;;5068383;28;20488;-78
2023/06/15 11:29:25;;;;;;;17.02;13.77;;;20.00;1.00;;;;;;5067276;28;20048;-79
2023/06/15 11:31:53;;;;;;;21.63;17.10;;;19.90;1.00;;;;;;5068555;28;20124;-78
2023/06/15 11:34:21;;;;;;;15.95;13.07;;;19.80;1.00;;;;;;5067817;28;20049;-78
2023/06/15 11:36:48;;;;;;;18.50;15.57;;;19.50;1.00;;;;;;5067721;28;20094;-78
2023/06/15 11:39:21;;;;;;;20.27;17.02;;;19.20;1.00;;;;;;5067509;28;20048;-78
2023/06/15 11:41:50;;;;;;;23.98;14.93;;;19.10;1.00;;;;;;5068004;28;20047;-78
2023/06/15 11:44:17;;;;;;;19.63;16.00;;;19.10;79.30;;;;;;5068230;28;20053;-79
2023/06/15 11:46:53;;;;;;;20.08;15.38;;;19.10;99.90;;;;;;5068461;28;20036;-79
2023/06/15 11:49:21;;;;;;;18.38;14.25;;;18.90;99.90;;;;;;5069035;28;20052;-79
2023/06/15 11:51:51;;;;;;;27.00;20.73;;;18.70;99.90;;;;;;5050267;28;20056;-78
2023/06/15 11:54:23;;;;;;;22.63;17.17;;;18.60;1.00;;;;;;5068328;28;20054;-78
2023/06/15 11:56:51;;;;;;;21.77;16.15;;;18.60;1.00;;;;;;5068709;28;20139;-78
2023/06/15 11:59:21;;;;;;;17.00;13.82;;;18.70;1.00;;;;;;5049906;28;20131;-79
2023/06/15 12:01:50;;;;;;;18.73;14.25;;;18.80;1.00;;;;;;5068468;28;20040;-79
2023/06/15 12:04:18;;;;;;;18.70;13.40;;;18.90;1.00;;;;;;5069190;28;20661;-79
2023/06/15 12:06:47;;;;;;;14.35;11.98;;;19.10;1.00;;;;;;5068366;28;20090;-78
2023/06/15 12:09:16;;;;;;;18.67;12.45;;;19.30;1.00;;;;;;5067562;28;20033;-79
2023/06/15 12:11:45;;;;;;;14.70;11.68;;;19.40;99.90;;;;;;5068272;28;20131;-78
2023/06/15 12:14:20;;;;;;;16.65;13.43;;;19.40;90.80;;;;;;5067974;28;20132;-78
2023/06/15 12:16:51;;;;;;;18.38;14.27;;;19.30;99.90;;;;;;5049458;28;20045;-79
2023/06/15 12:19:20;;;;;;;29.27;20.70;;;19.40;99.90;;;;;;5067825;28;20039;-76
2023/06/15 12:21:49;;;;;;;18.98;15.38;;;19.40;99.90;;;;;;5067557;28;20037;-78
2023/06/15 12:24:17;;;;;;;16.52;13.93;;;19.40;99.90;;;;;;5069028;28;20036;-78
2023/06/15 12:26:51;;;;;;;24.00;16.40;;;19.30;99.90;;;;;;5068651;28;20127;-79
2023/06/15 12:29:21;;;;;;;21.88;18.23;;;19.10;7.40;;;;;;5067348;28;20044;-79
2023/06/15 12:31:50;;;;;;;18.65;15.48;;;18.90;99.90;;;;;;5067581;28;20103;-80
2023/06/15 12:34:22;;;;;;;20.77;15.40;;;18.70;99.90;;;;;;5053047;28;20106;-78
2023/06/15 12:36:50;;;;;;;22.10;18.20;;;18.50;1.00;;;;;;5067193;28;20037;-80
2023/06/15 12:39:18;;;;;;;20.65;15.10;;;18.40;1.00;;;;;;5068010;28;20055;-78
2023/06/15 12:41:46;;;;;;;25.20;18.55;;;18.30;99.90;;;;;;5068811;28;20041;-81
2023/06/15 12:44:14;;;;;;;23.83;18.65;;;18.20;1.00;;;;;;5068174;28;20056;-79
2023/06/15 12:46:41;;;;;;;25.27;19.40;;;18.20;41.50;;;;;;5049886;28;20064;-80
2023/06/15 12:49:11;;;;;;;23.85;16.23;;;18.20;1.00;;;;;;5066794;28;20041;-80